Arlanda (ARN/ESSA)




Flight Aircraft Arriving
CPX1152 B738
EBLG - Liège Airport
Belgium Liege, Belgium
Flight Aircraft Departing
CPX1151 B738
EBLG - Liège Airport
Belgium Liege, Belgium
Airport Information
Location: Stockholm, SE
Coordinates: 59.6519 / 17.9186
Elevation:
Time Offset:
Local Time:
UTC Time:
Jet A Price: $/lbs

Current Weather
METAR: ESSA 232120Z 25014KT CAVOK 05/03 Q1007 R01L/19//95 R08/19//95 R01R/19//95 NOSIG
TAF: TAF ESSA 231730Z 2318/2418 25012KT CAVOK

Recent Arrivals
Date Flight Type Depart
12/02/2019 CPX1151 B738 Liège Airport (EBLG)
Recent Departures

Warning: Invalid argument supplied for foreach() in /var/www/capitollogistics/lib/skins/urban/hub/aptview.php on line 268
Date Flight Type Arrive